Ops Hamburg — A8VS9 — position and weather

sailwx.info

Track history (hours):
 
Tides and Currents Weather Stations Pressure Air Temp Water Temp Dewpoint Dewpoint Depression Visibility Wind Speed Wind Dir Waves Ship Positions

Ops Hamburg

Last reported at 2017-Jan-14 17:14 UTC. Time now 2017-Jan-20 20:11 UTC.
Position N 36°24' W 002°31'.

Length 148 m; draft 7.7 m.

Type: Ship (hazmat cat A). MMSI: 636092040.

Date/timePositionNaut miles runAvg speedWind from/ knotsBaromVisibWave heightAir tempDewpointWater temp
2017-Jan-14 17:14N 36°24' W 002°31'7412.4
2017-Jan-14 11:14N 37°05' W 001°14'812.3
2017-Jan-14 10:33N 37°11' W 001°07'1212.4
2017-Jan-14 09:33N 37°19' W 000°55'1312.6
2017-Jan-14 08:33N 37°28' W 000°43'1312.5
2017-Jan-14 07:33N 37°36' W 000°32'1313.2
2017-Jan-14 06:33N 37°48' W 000°23'1312.9
2017-Jan-14 05:33N 37°58' W 000°14'8610.5
2017-Jan-13 21:25N 39°24' W 000°13'5 6.0
2017-Jan-13 20:31N 39°27' W 000°19'0 0.0
2017-Jan-13 19:28N 39°27' W 000°19'0 0.0
2017-Jan-13 18:28N 39°27' W 000°19'0 0.0
2017-Jan-13 17:31N 39°27' W 000°19'0 0.0
2017-Jan-13 16:22N 39°27' W 000°19'0 0.0
2017-Jan-13 15:31N 39°27' W 000°19'0 0.0
2017-Jan-13 14:28N 39°27' W 000°19'0 0.0
2017-Jan-13 13:33N 39°27' W 000°19'3 3.0
2017-Jan-13 12:34N 39°26' W 000°16'6713.2
2017-Jan-13 07:29N 40°10' E 000°49'1111.5
2017-Jan-13 06:33N 40°18' E 000°59'1111.0
2017-Jan-13 05:33N 40°25' E 001°10'1110.8
2017-Jan-13 04:33N 40°32' E 001°20'1010.2
2017-Jan-13 03:33N 40°39' E 001°30'1110.7
2017-Jan-13 02:33N 40°47' E 001°41'1110.9
2017-Jan-13 01:33N 40°54' E 001°51'1110.7
2017-Jan-13 00:33N 41°02' E 002°01'1111.3
2017-Jan-12 23:33N 41°12' E 002°08'10 8.7
2017-Jan-12 22:27N 41°21' E 002°10'0 0.0
2017-Jan-12 21:33N 41°21' E 002°10'0 0.0
2017-Jan-12 20:09N 41°21' E 002°10'0 0.0
2017-Jan-12 19:33N 41°21' E 002°10'0 0.0
2017-Jan-12 16:33N 41°21' E 002°10'0 0.0
2017-Jan-12 14:33N 41°21' E 002°10'0 0.0
2017-Jan-12 12:19N 41°21' E 002°10'3 2.4
2017-Jan-12 11:16N 41°19' E 002°11'0 0.4
2017-Jan-12 10:33N 41°19' E 002°11'0 0.0
2017-Jan-12 09:33N 41°19' E 002°11'0 0.0
2017-Jan-12 08:24N 41°19' E 002°11'0 0.0
2017-Jan-12 07:30N 41°19' E 002°11'20 0.9
2017-Jan-11 08:29N 41°16' E 002°38'15511.7
2017-Jan-10 19:15N 43°08' E 005°03'911.3
2017-Jan-10 18:29N 43°15' E 005°09'910.2
2017-Jan-10 17:34N 43°21' E 005°20'6 0.5
2017-Jan-10 04:06N 43°17' E 005°12'5 9.7
2017-Jan-10 03:33N 43°12' E 005°10'151 5.0
2017-Jan-08 21:33N 41°18' E 002°58'1514.9
2017-Jan-08 20:33N 41°06' E 002°46'1514.9
2017-Jan-08 19:33N 40°54' E 002°34'1515.5
2017-Jan-08 18:33N 40°41' E 002°22'1615.7
2017-Jan-08 17:34N 40°29' E 002°10'1615.7
2017-Jan-08 16:33N 40°16' E 001°57'1515.2
2017-Jan-08 15:33N 40°04' E 001°46'1515.3
2017-Jan-08 14:34N 39°52' E 001°34'9315.4
2017-Jan-08 08:31N 38°37' E 000°24'1815.4
2017-Jan-08 07:20N 38°22' E 000°10'1315.2
2017-Jan-08 06:29N 38°11' E 000°01'1415.2
2017-Jan-08 05:33N 37°59' W 000°09'1615.6
2017-Jan-08 04:33N 37°46' W 000°20'1515.4
2017-Jan-08 03:33N 37°33' W 000°31'1515.0
2017-Jan-08 02:33N 37°24' W 000°45'1515.1
2017-Jan-08 01:33N 37°13' W 000°59'1515.1
2017-Jan-08 00:33N 37°03' W 001°13'20114.3
2017-Jan-07 10:32N 36°01' W 005°11'1515.2
2017-Jan-07 09:33N 35°58' W 005°28'1714.4
2017-Jan-07 08:21N 35°55' W 005°50'  
Track history (hours):
 
Tides and Currents Weather Stations Pressure Air Temp Water Temp Dewpoint Dewpoint Depression Visibility Wind Speed Wind Dir Waves Ship Positions

Ops Hamburg

Last reported at 2017-Jan-14 17:14 UTC. Time now 2017-Jan-20 20:11 UTC.
Position N 36°24' W 002°31'.

Length 148 m; draft 7.7 m.

Type: Ship (hazmat cat A). MMSI: 636092040.

Date/timePositionNaut miles runAvg speedWind from/ knotsBaromVisibWave heightAir tempDewpointWater temp
2017-Jan-14 17:14N 36°24' W 002°31'7412.4
2017-Jan-14 11:14N 37°05' W 001°14'812.3
2017-Jan-14 10:33N 37°11' W 001°07'1212.4
2017-Jan-14 09:33N 37°19' W 000°55'1312.6
2017-Jan-14 08:33N 37°28' W 000°43'1312.5
2017-Jan-14 07:33N 37°36' W 000°32'1313.2
2017-Jan-14 06:33N 37°48' W 000°23'1312.9
2017-Jan-14 05:33N 37°58' W 000°14'8610.5
2017-Jan-13 21:25N 39°24' W 000°13'5 6.0
2017-Jan-13 20:31N 39°27' W 000°19'0 0.0
2017-Jan-13 19:28N 39°27' W 000°19'0 0.0
2017-Jan-13 18:28N 39°27' W 000°19'0 0.0
2017-Jan-13 17:31N 39°27' W 000°19'0 0.0
2017-Jan-13 16:22N 39°27' W 000°19'0 0.0
2017-Jan-13 15:31N 39°27' W 000°19'0 0.0
2017-Jan-13 14:28N 39°27' W 000°19'0 0.0
2017-Jan-13 13:33N 39°27' W 000°19'3 3.0
2017-Jan-13 12:34N 39°26' W 000°16'6713.2
2017-Jan-13 07:29N 40°10' E 000°49'1111.5
2017-Jan-13 06:33N 40°18' E 000°59'1111.0
2017-Jan-13 05:33N 40°25' E 001°10'1110.8
2017-Jan-13 04:33N 40°32' E 001°20'1010.2
2017-Jan-13 03:33N 40°39' E 001°30'1110.7
2017-Jan-13 02:33N 40°47' E 001°41'1110.9
2017-Jan-13 01:33N 40°54' E 001°51'1110.7
2017-Jan-13 00:33N 41°02' E 002°01'1111.3
2017-Jan-12 23:33N 41°12' E 002°08'10 8.7
2017-Jan-12 22:27N 41°21' E 002°10'0 0.0
2017-Jan-12 21:33N 41°21' E 002°10'0 0.0
2017-Jan-12 20:09N 41°21' E 002°10'0 0.0
2017-Jan-12 19:33N 41°21' E 002°10'0 0.0
2017-Jan-12 16:33N 41°21' E 002°10'0 0.0
2017-Jan-12 14:33N 41°21' E 002°10'0 0.0
2017-Jan-12 12:19N 41°21' E 002°10'3 2.4
2017-Jan-12 11:16N 41°19' E 002°11'0 0.4
2017-Jan-12 10:33N 41°19' E 002°11'0 0.0
2017-Jan-12 09:33N 41°19' E 002°11'0 0.0
2017-Jan-12 08:24N 41°19' E 002°11'0 0.0
2017-Jan-12 07:30N 41°19' E 002°11'20 0.9
2017-Jan-11 08:29N 41°16' E 002°38'15511.7
2017-Jan-10 19:15N 43°08' E 005°03'911.3
2017-Jan-10 18:29N 43°15' E 005°09'910.2
2017-Jan-10 17:34N 43°21' E 005°20'6 0.5
2017-Jan-10 04:06N 43°17' E 005°12'5 9.7
2017-Jan-10 03:33N 43°12' E 005°10'151 5.0
2017-Jan-08 21:33N 41°18' E 002°58'1514.9
2017-Jan-08 20:33N 41°06' E 002°46'1514.9
2017-Jan-08 19:33N 40°54' E 002°34'1515.5
2017-Jan-08 18:33N 40°41' E 002°22'1615.7
2017-Jan-08 17:34N 40°29' E 002°10'1615.7
2017-Jan-08 16:33N 40°16' E 001°57'1515.2
2017-Jan-08 15:33N 40°04' E 001°46'1515.3
2017-Jan-08 14:34N 39°52' E 001°34'9315.4
2017-Jan-08 08:31N 38°37' E 000°24'1815.4
2017-Jan-08 07:20N 38°22' E 000°10'1315.2
2017-Jan-08 06:29N 38°11' E 000°01'1415.2
2017-Jan-08 05:33N 37°59' W 000°09'1615.6
2017-Jan-08 04:33N 37°46' W 000°20'1515.4
2017-Jan-08 03:33N 37°33' W 000°31'1515.0
2017-Jan-08 02:33N 37°24' W 000°45'1515.1
2017-Jan-08 01:33N 37°13' W 000°59'1515.1
2017-Jan-08 00:33N 37°03' W 001°13'20114.3
2017-Jan-07 10:32N 36°01' W 005°11'1515.2
2017-Jan-07 09:33N 35°58' W 005°28'1714.4
2017-Jan-07 08:21N 35°55' W 005°50'  

Dump ship's entire track history